createdAt,value
2023-07-10T00:02:54.504Z,100735.75
2023-07-10T00:05:58.046Z,100729.16
2023-07-10T00:09:00.553Z,100733.88
2023-07-10T00:12:04.046Z,100714.56
2023-07-10T00:15:14.781Z,100734.97
2023-07-10T00:18:21.801Z,100718.25
2023-07-10T00:21:24.291Z,100726.41
2023-07-10T00:24:26.833Z,100738.34
2023-07-10T00:27:29.998Z,100731.16
2023-07-10T00:30:33.306Z,100732.22
2023-07-10T00:33:36.161Z,100745.47
2023-07-10T00:36:43.044Z,100726.13
2023-07-10T00:39:45.632Z,100742.25
2023-07-10T00:42:51.506Z,100741.44
2023-07-10T00:45:55.396Z,100743.25
2023-07-10T00:49:06.813Z,100740.59
2023-07-10T00:52:29.345Z,100737.69
2023-07-10T00:55:35.369Z,100718.88
2023-07-10T00:58:40.407Z,100728.41
2023-07-10T01:02:08.662Z,100744.28
2023-07-10T01:05:11.672Z,100737.63
2023-07-10T01:08:14.802Z,100744.28
2023-07-10T01:11:18.236Z,100730.53
2023-07-10T01:14:21.565Z,100734.25
2023-07-10T01:17:25.158Z,100745.31
2023-07-10T01:20:36.943Z,100725.47
2023-07-10T01:23:39.666Z,100743.22
2023-07-10T01:26:42.105Z,100738.44
2023-07-10T01:29:48.511Z,100737.63
2023-07-10T01:32:52.985Z,100728.38
2023-07-10T01:36:01.950Z,100724.63
2023-07-10T01:39:10.559Z,100746.06
2023-07-10T01:42:13.502Z,100724.59
2023-07-10T01:45:16.069Z,100724.84
2023-07-10T01:48:24.591Z,100730.66
2023-07-10T01:51:27.364Z,100734.91
2023-07-10T01:54:30.458Z,100746.72
2023-07-10T01:57:38.246Z,100741.41
2023-07-10T02:00:42.196Z,100730.75
2023-07-10T02:03:44.828Z,100740.81
2023-07-10T02:06:49.497Z,100749.72
2023-07-10T02:09:52.331Z,100730.88
2023-07-10T02:12:54.826Z,100747.56
2023-07-10T02:16:03.376Z,100730.06
2023-07-10T02:19:06.444Z,100740.09
2023-07-10T02:22:10.125Z,100731.91
2023-07-10T02:25:12.687Z,100727.91
2023-07-10T02:28:16.620Z,100736.59
2023-07-10T02:31:19.203Z,100740.09
2023-07-10T02:34:21.734Z,100727.56
2023-07-10T02:37:24.235Z,100737.31
2023-07-10T02:40:26.743Z,100741.53
2023-07-10T02:43:29.371Z,100738.25
2023-07-10T02:46:32.015Z,100733.97
2023-07-10T02:49:34.650Z,100729.63
2023-07-10T02:52:37.807Z,100727.00
2023-07-10T02:55:40.447Z,100745.00
2023-07-10T02:58:42.907Z,100738.59
2023-07-10T03:01:48.137Z,100734.38
2023-07-10T03:04:51.369Z,100741.25
2023-07-10T03:07:54.415Z,100744.72
2023-07-10T03:11:02.501Z,100741.28
2023-07-10T03:14:05.045Z,100727.50
2023-07-10T03:17:07.768Z,100723.28
2023-07-10T03:20:11.032Z,100728.47
2023-07-10T03:23:13.427Z,100720.56
2023-07-10T03:26:16.316Z,100719.25
2023-07-10T03:29:18.794Z,100738.66
2023-07-10T03:32:21.475Z,100740.53
2023-07-10T03:35:24.368Z,100739.56
2023-07-10T03:38:27.252Z,100732.22
2023-07-10T03:41:29.727Z,100734.28
2023-07-10T03:44:32.354Z,100730.69
2023-07-10T03:47:34.897Z,100721.72
2023-07-10T03:50:37.514Z,100722.75
2023-07-10T03:53:41.037Z,100727.78
2023-07-10T03:56:43.531Z,100733.34
2023-07-10T03:59:46.041Z,100738.72
2023-07-10T04:02:48.539Z,100721.31
2023-07-10T04:05:53.927Z,100733.78
2023-07-10T04:08:59.878Z,100738.59
2023-07-10T04:12:03.144Z,100737.03
2023-07-10T04:15:06.072Z,100732.25
2023-07-10T04:18:08.551Z,100742.41
2023-07-10T04:21:22.109Z,100738.00
2023-07-10T04:24:24.570Z,100736.16
2023-07-10T04:27:27.129Z,100742.03
2023-07-10T04:30:29.633Z,100721.69
2023-07-10T04:33:34.748Z,100739.44
2023-07-10T04:36:38.367Z,100734.22
2023-07-10T04:39:40.975Z,100740.63
2023-07-10T04:42:43.406Z,100727.16
2023-07-10T04:45:45.905Z,100729.88
2023-07-10T04:48:49.340Z,100743.94
2023-07-10T04:51:52.320Z,100715.06
2023-07-10T04:54:54.823Z,100738.09
2023-07-10T04:57:57.304Z,100738.38
2023-07-10T05:01:01.359Z,100733.91
2023-07-10T05:04:04.531Z,100728.13
2023-07-10T05:07:07.496Z,100740.56
2023-07-10T05:10:10.457Z,100741.91
2023-07-10T05:13:12.904Z,100746.16
2023-07-10T05:16:16.181Z,100729.19
2023-07-10T05:19:19.107Z,100743.53
2023-07-10T05:22:21.580Z,100742.72
2023-07-10T05:25:24.135Z,100738.72
2023-07-10T05:28:27.759Z,100738.97
2023-07-10T05:31:30.407Z,100741.31
2023-07-10T05:34:32.900Z,100745.78
2023-07-10T05:37:35.687Z,100753.97
2023-07-10T05:40:42.603Z,100754.53
2023-07-10T05:43:45.555Z,100745.50
2023-07-10T05:46:48.381Z,100744.97
2023-07-10T05:49:51.071Z,100748.88
2023-07-10T05:52:53.687Z,100748.31
2023-07-10T05:55:58.023Z,100747.44
2023-07-10T05:59:02.355Z,100749.25
2023-07-10T06:02:05.230Z,100721.81
2023-07-10T06:05:08.704Z,100754.53
2023-07-10T06:08:11.775Z,100745.13
2023-07-10T06:11:14.218Z,100745.03
2023-07-10T06:14:16.953Z,100745.66
2023-07-10T06:17:19.571Z,100737.31
2023-07-10T06:20:22.273Z,100737.91
2023-07-10T06:23:27.077Z,100731.84
2023-07-10T06:26:29.595Z,100744.84
2023-07-10T06:29:34.019Z,100733.09
2023-07-10T06:32:37.905Z,100726.19
2023-07-10T06:35:43.109Z,100735.59
2023-07-10T06:38:45.644Z,100735.25
2023-07-10T06:41:48.250Z,100720.69
2023-07-10T06:44:50.818Z,100724.16
2023-07-10T06:47:53.340Z,100713.56
2023-07-10T06:50:57.316Z,100720.34
2023-07-10T06:53:59.933Z,100732.72
2023-07-10T06:57:02.408Z,100718.22
2023-07-10T07:00:09.655Z,100730.25
2023-07-10T07:03:12.274Z,100722.06
2023-07-10T07:06:14.819Z,100718.41
2023-07-10T07:09:17.240Z,100721.84
2023-07-10T07:12:19.752Z,100706.63
2023-07-10T07:15:22.281Z,100718.09
2023-07-10T07:18:29.381Z,100696.22
2023-07-10T07:21:32.180Z,100707.00
2023-07-10T07:24:34.766Z,100700.94
2023-07-10T07:27:37.393Z,100707.94
2023-07-10T07:30:41.219Z,100701.38
2023-07-10T07:33:43.772Z,100693.19
2023-07-10T07:36:46.401Z,100705.97
2023-07-10T07:39:48.977Z,100691.50
2023-07-10T07:42:51.458Z,100695.91
2023-07-10T07:45:56.579Z,100698.63
2023-07-10T07:48:59.322Z,100682.13
2023-07-10T07:52:01.798Z,100695.06
2023-07-10T07:55:05.637Z,100702.81
2023-07-10T07:58:08.167Z,100701.69
2023-07-10T08:01:11.087Z,100689.13
2023-07-10T08:04:13.685Z,100702.66
2023-07-10T08:07:16.288Z,100688.44
2023-07-10T08:10:18.807Z,100692.66
2023-07-10T08:13:22.115Z,100679.53
2023-07-10T08:16:25.021Z,100680.66
2023-07-10T08:19:27.509Z,100683.44
2023-07-10T08:22:29.951Z,100675.53
2023-07-10T08:25:34.339Z,100668.06
2023-07-10T08:28:36.905Z,100672.91
2023-07-10T08:31:39.340Z,100659.41
2023-07-10T08:34:41.896Z,100639.22
2023-07-10T08:37:44.626Z,100634.06
2023-07-10T08:40:50.716Z,100650.16
2023-07-10T08:43:53.274Z,100652.25
2023-07-10T08:46:56.579Z,100638.13
2023-07-10T08:50:18.010Z,100642.34
2023-07-10T08:53:25.921Z,100629.59
2023-07-10T08:56:36.688Z,100636.91
2023-07-10T09:00:09.713Z,100634.22
2023-07-10T09:03:41.383Z,100637.34
2023-07-10T09:06:51.141Z,100627.50
2023-07-10T09:10:00.985Z,100634.44
2023-07-10T09:13:04.448Z,100642.75
2023-07-10T09:16:21.391Z,100642.06
2023-07-10T09:19:25.347Z,100642.53
2023-07-10T09:22:27.912Z,100621.94
2023-07-10T09:25:31.371Z,100630.19
2023-07-10T09:28:34.618Z,100615.78
2023-07-10T09:32:11.728Z,100624.25
2023-07-10T09:35:17.109Z,100613.91
2023-07-10T09:38:20.022Z,100617.16
2023-07-10T09:41:30.771Z,100613.31
2023-07-10T09:44:39.271Z,100599.28
2023-07-10T09:47:45.018Z,100599.00
2023-07-10T09:50:50.832Z,100595.81
2023-07-10T09:54:03.361Z,100594.38
2023-07-10T09:57:13.648Z,100597.72
2023-07-10T10:00:18.487Z,100593.72
2023-07-10T10:03:39.962Z,100602.19
2023-07-10T10:06:43.921Z,100589.97
2023-07-10T10:09:48.309Z,100609.28
2023-07-10T10:13:16.538Z,100577.41
2023-07-10T10:16:37.599Z,100584.25
2023-07-10T10:19:44.840Z,100572.97
2023-07-10T10:22:48.447Z,100567.16
2023-07-10T10:25:53.109Z,100574.59
2023-07-10T10:29:05.900Z,100575.50
2023-07-10T10:32:33.711Z,100569.16
2023-07-10T10:35:46.420Z,100555.63
2023-07-10T10:39:10.423Z,100561.50
2023-07-10T10:42:27.208Z,100563.72
2023-07-10T10:45:40.431Z,100546.44
2023-07-10T10:49:17.059Z,100568.78
2023-07-10T10:52:31.548Z,100562.16
2023-07-10T10:55:53.998Z,100561.13
2023-07-10T10:59:58.618Z,100556.09
2023-07-10T11:03:10.015Z,100552.50
2023-07-10T11:06:39.854Z,100546.38
2023-07-10T11:09:45.076Z,100556.19
2023-07-10T11:12:47.640Z,100541.53
2023-07-10T11:15:51.187Z,100548.34
2023-07-10T11:18:54.063Z,100546.22
2023-07-10T11:21:57.115Z,100537.22
2023-07-10T11:25:02.812Z,100544.47
2023-07-10T11:28:26.903Z,100524.28
2023-07-10T11:31:33.111Z,100534.69
2023-07-10T11:34:38.987Z,100529.09
2023-07-10T11:38:01.611Z,100525.81
2023-07-10T11:41:25.708Z,100526.22
2023-07-10T11:44:34.159Z,100530.72
2023-07-10T11:47:36.775Z,100519.56
2023-07-10T11:50:39.370Z,100512.00
2023-07-10T11:53:42.057Z,100516.09
2023-07-10T11:57:11.728Z,100527.31
2023-07-10T12:00:14.400Z,100507.91
2023-07-10T12:03:16.958Z,100498.94
2023-07-10T12:06:22.088Z,100503.28
2023-07-10T12:09:24.607Z,100511.34
2023-07-10T12:12:32.267Z,100491.31
2023-07-10T12:15:37.541Z,100506.41
2023-07-10T12:18:42.160Z,100481.91
2023-07-10T12:21:46.012Z,100493.44
2023-07-10T12:24:51.358Z,100489.56
2023-07-10T12:31:00.309Z,100490.81
2023-07-10T12:34:03.641Z,100480.13
2023-07-10T12:37:11.390Z,100487.38
2023-07-10T12:40:16.535Z,100495.13
2023-07-10T12:43:23.822Z,100492.47
2023-07-10T12:46:30.186Z,100486.94
2023-07-10T12:49:34.762Z,100479.22
2023-07-10T12:52:38.602Z,100471.44
2023-07-10T12:55:41.964Z,100480.28
2023-07-10T12:58:48.869Z,100466.91
2023-07-10T13:01:55.463Z,100483.78
2023-07-10T13:05:00.392Z,100473.38
2023-07-10T13:08:03.743Z,100476.38
2023-07-10T13:11:07.433Z,100484.03
2023-07-10T13:14:26.027Z,100478.56
2023-07-10T13:17:29.363Z,100483.75
2023-07-10T13:20:32.018Z,100470.50
2023-07-10T13:23:34.787Z,100470.88
2023-07-10T13:26:37.317Z,100476.72
2023-07-10T13:29:39.973Z,100465.16
2023-07-10T13:32:42.532Z,100466.19
2023-07-10T13:35:47.751Z,100461.81
2023-07-10T13:38:50.380Z,100467.19
2023-07-10T13:41:54.421Z,100469.03
2023-07-10T13:44:56.946Z,100458.72
2023-07-10T13:47:59.398Z,100469.97
2023-07-10T13:51:02.940Z,100455.69
2023-07-10T13:54:06.237Z,100470.91
2023-07-10T13:57:31.105Z,100448.09
2023-07-10T14:00:33.597Z,100463.75
2023-07-10T14:03:36.847Z,100448.59
2023-07-10T14:06:46.543Z,100461.31
2023-07-10T14:09:49.569Z,100451.78
2023-07-10T14:12:52.393Z,100439.72
2023-07-10T14:16:04.129Z,100451.41
2023-07-10T14:19:15.951Z,100443.47
2023-07-10T14:22:18.438Z,100443.28
2023-07-10T14:25:23.358Z,100437.50
2023-07-10T14:28:27.557Z,100441.88
2023-07-10T14:31:30.275Z,100434.03
2023-07-10T14:34:32.762Z,100439.69
2023-07-10T14:37:35.234Z,100437.59
2023-07-10T14:40:37.801Z,100441.03
2023-07-10T14:43:42.603Z,100450.72
2023-07-10T14:46:54.745Z,100445.84
2023-07-10T14:50:07.082Z,100434.91
2023-07-10T14:53:16.369Z,100449.06
2023-07-10T14:56:18.882Z,100435.56
2023-07-10T14:59:21.451Z,100433.75
2023-07-10T15:02:26.245Z,100441.34
2023-07-10T15:05:30.331Z,100431.53
2023-07-10T15:08:39.398Z,100429.31
2023-07-10T15:11:42.794Z,100434.38
2023-07-10T15:14:45.991Z,100433.94
2023-07-10T15:17:49.125Z,100438.78
2023-07-10T15:20:51.821Z,100436.00
2023-07-10T15:23:54.433Z,100424.50
2023-07-10T15:26:57.145Z,100427.97
2023-07-10T15:29:59.680Z,100436.78
2023-07-10T15:33:03.522Z,100444.69
2023-07-10T15:36:06.898Z,100419.44
2023-07-10T15:39:16.933Z,100429.88
2023-07-10T15:42:20.158Z,100426.97
2023-07-10T15:45:23.290Z,100439.16
2023-07-10T15:48:25.930Z,100424.94
2023-07-10T15:51:28.948Z,100427.28
2023-07-10T15:54:31.512Z,100426.50
2023-07-10T15:57:34.035Z,100417.94
2023-07-10T16:00:40.336Z,100405.06
2023-07-10T16:03:43.270Z,100404.22
2023-07-10T16:06:45.765Z,100375.03
2023-07-10T16:09:48.209Z,100386.81
2023-07-10T16:12:52.444Z,100389.28
2023-07-10T16:15:54.945Z,100383.06
2023-07-10T16:18:57.448Z,100388.81
2023-07-10T16:21:59.891Z,100384.63
2023-07-10T16:25:02.436Z,100387.63
2023-07-10T16:28:05.194Z,100385.03
2023-07-10T16:31:22.018Z,100366.88
2023-07-10T16:34:26.227Z,100377.91
2023-07-10T16:37:28.878Z,100373.06
2023-07-10T16:40:31.402Z,100370.31
2023-07-10T16:43:35.310Z,100376.91
2023-07-10T16:46:38.908Z,100370.66
2023-07-10T16:49:41.471Z,100366.63
2023-07-10T16:52:45.500Z,100383.00
2023-07-10T16:55:48.204Z,100391.03
2023-07-10T16:58:51.931Z,100384.00
2023-07-10T17:01:54.472Z,100390.38
2023-07-10T17:04:57.007Z,100393.91
2023-07-10T17:08:00.678Z,100406.72
2023-07-10T17:11:03.591Z,100408.25
2023-07-10T17:14:14.996Z,100413.84
2023-07-10T17:17:22.519Z,100426.16
2023-07-10T17:20:25.076Z,100437.66
2023-07-10T17:23:32.529Z,100456.56
2023-07-10T17:26:35.075Z,100465.63
2023-07-10T17:29:37.548Z,100487.72
2023-07-10T17:32:40.892Z,100479.00
2023-07-10T17:35:43.352Z,100497.53
2023-07-10T17:38:46.781Z,100481.97
2023-07-10T17:41:51.734Z,100479.94
2023-07-10T17:44:54.230Z,100465.13
2023-07-10T17:47:56.787Z,100485.81
2023-07-10T17:51:06.608Z,100483.03
2023-07-10T17:54:29.158Z,100479.13
2023-07-10T17:57:31.736Z,100473.31
2023-07-10T18:00:34.179Z,100444.78
2023-07-10T18:03:36.652Z,100425.84
2023-07-10T18:06:39.887Z,100434.22
2023-07-10T18:09:42.730Z,100457.16
2023-07-10T18:12:45.216Z,100467.38
2023-07-10T18:15:47.840Z,100471.16
2023-07-10T18:18:50.520Z,100469.53
2023-07-10T18:21:57.039Z,100475.47
2023-07-10T18:24:59.603Z,100470.59
2023-07-10T18:28:02.155Z,100495.38
2023-07-10T18:31:15.235Z,100503.09
2023-07-10T18:34:20.865Z,100519.97
2023-07-10T18:37:24.971Z,100515.41
2023-07-10T18:40:27.681Z,100505.03
2023-07-10T18:43:33.983Z,100522.97
2023-07-10T18:46:36.540Z,100502.03
2023-07-10T18:49:39.325Z,100485.69
2023-07-10T18:52:42.397Z,100476.00
2023-07-10T18:55:44.810Z,100466.25
2023-07-10T18:58:48.536Z,100498.03
2023-07-10T19:01:54.262Z,100510.91
2023-07-10T19:04:57.732Z,100540.47
2023-07-10T19:08:00.279Z,100575.72
2023-07-10T19:11:02.977Z,100555.72
2023-07-10T19:14:13.563Z,100542.03
2023-07-10T19:17:20.697Z,100550.53
2023-07-10T19:20:23.521Z,100558.94
2023-07-10T19:23:29.169Z,100561.13
2023-07-10T19:26:31.733Z,100549.91
2023-07-10T19:29:34.338Z,100547.03
2023-07-10T19:32:36.863Z,100559.28
2023-07-10T19:35:39.362Z,100566.75
2023-07-10T19:38:42.762Z,100546.69
2023-07-10T19:41:45.877Z,100575.13
2023-07-10T19:44:52.714Z,100573.38
2023-07-10T19:47:55.260Z,100570.06
2023-07-10T19:50:57.819Z,100575.47
2023-07-10T19:54:00.331Z,100575.28
2023-07-10T19:57:03.067Z,100560.38
2023-07-10T20:00:06.309Z,100545.53
2023-07-10T20:03:22.170Z,100534.44
2023-07-10T20:06:26.674Z,100543.19
2023-07-10T20:09:29.174Z,100543.44
2023-07-10T20:12:32.828Z,100535.13
2023-07-10T20:15:35.445Z,100512.34
2023-07-10T20:18:38.184Z,100509.31
2023-07-10T20:21:40.697Z,100522.41
2023-07-10T20:24:43.248Z,100528.75
2023-07-10T20:27:45.878Z,100524.22
2023-07-10T20:30:53.779Z,100502.41
2023-07-10T20:33:56.344Z,100523.06
2023-07-10T20:36:58.816Z,100522.38
2023-07-10T20:40:01.325Z,100517.25
2023-07-10T20:43:13.755Z,100524.53
2023-07-10T20:46:25.789Z,100534.50
2023-07-10T20:49:28.444Z,100509.16
2023-07-10T20:52:30.882Z,100513.72
2023-07-10T20:55:33.994Z,100507.13
2023-07-10T20:58:36.472Z,100477.75
2023-07-10T21:01:38.999Z,100477.75
2023-07-10T21:04:41.481Z,100482.31
2023-07-10T21:07:44.573Z,100486.25
2023-07-10T21:10:48.099Z,100464.81
2023-07-10T21:13:52.036Z,100463.31
2023-07-10T21:16:54.635Z,100465.59
2023-07-10T21:19:57.295Z,100446.66
2023-07-10T21:22:59.967Z,100458.28
2023-07-10T21:26:17.932Z,100452.75
2023-07-10T21:29:20.930Z,100455.09
2023-07-10T21:32:25.326Z,100447.03
2023-07-10T21:35:31.032Z,100464.41
2023-07-10T21:38:33.576Z,100471.28
2023-07-10T21:41:39.418Z,100459.06
2023-07-10T21:44:41.871Z,100475.91
2023-07-10T21:47:44.446Z,100469.34
2023-07-10T21:50:52.043Z,100471.28
2023-07-10T21:53:55.189Z,100476.03
2023-07-10T21:56:57.881Z,100474.03
2023-07-10T22:00:00.339Z,100460.41
2023-07-10T22:03:03.002Z,100480.09
2023-07-10T22:06:07.770Z,100474.72
2023-07-10T22:09:12.634Z,100469.63
2023-07-10T22:12:16.222Z,100468.47
2023-07-10T22:15:21.958Z,100455.13
2023-07-10T22:18:31.067Z,100462.81
2023-07-10T22:21:35.457Z,100456.22
2023-07-10T22:24:37.915Z,100459.16
2023-07-10T22:27:40.586Z,100439.44
2023-07-10T22:30:45.817Z,100449.50
2023-07-10T22:33:49.024Z,100444.38
2023-07-10T22:36:51.483Z,100441.34
2023-07-10T22:39:53.988Z,100467.69
2023-07-10T22:42:56.515Z,100455.94
2023-07-10T22:46:17.301Z,100457.66
2023-07-10T22:49:19.769Z,100457.00
2023-07-10T22:52:22.343Z,100446.41
2023-07-10T22:55:24.800Z,100426.13
2023-07-10T22:58:27.333Z,100454.94
2023-07-10T23:01:30.178Z,100452.84
2023-07-10T23:04:33.033Z,100448.31
2023-07-10T23:07:35.513Z,100460.94
2023-07-10T23:10:37.960Z,100466.59
2023-07-10T23:13:40.479Z,100453.91
2023-07-10T23:16:42.994Z,100434.47
2023-07-10T23:19:45.491Z,100452.91
2023-07-10T23:22:48.143Z,100433.66
2023-07-10T23:25:50.636Z,100437.22
2023-07-10T23:28:53.853Z,100438.53
2023-07-10T23:31:57.159Z,100439.84
2023-07-10T23:35:00.944Z,100435.94
2023-07-10T23:38:03.538Z,100427.16
2023-07-10T23:41:06.201Z,100449.19
2023-07-10T23:44:08.682Z,100440.28
2023-07-10T23:47:12.014Z,100449.28
2023-07-10T23:50:16.836Z,100434.06
2023-07-10T23:53:19.398Z,100433.81
2023-07-10T23:56:21.897Z,100436.22
2023-07-10T23:59:24.427Z,100450.53
